sensor_id;sensor_type;location;lat;lon;timestamp;pressure;altitude;pressure_sealevel;temperature;humidity
9277;BME280;4676;42.678;23.244;2023-02-26T00:01:54;92893.19;;;13.38;53.60
9277;BME280;4676;42.678;23.244;2023-02-26T00:04:22;92906.28;;;13.45;53.32
9277;BME280;4676;42.678;23.244;2023-02-26T00:06:49;92886.28;;;13.40;54.80
9277;BME280;4676;42.678;23.244;2023-02-26T00:09:19;92874.78;;;13.35;54.32
9277;BME280;4676;42.678;23.244;2023-02-26T00:11:47;92882.41;;;13.35;54.57
9277;BME280;4676;42.678;23.244;2023-02-26T00:14:16;92863.84;;;13.22;54.64
9277;BME280;4676;42.678;23.244;2023-02-26T00:16:46;92868.06;;;13.34;55.51
9277;BME280;4676;42.678;23.244;2023-02-26T00:19:16;92875.22;;;13.29;53.83
9277;BME280;4676;42.678;23.244;2023-02-26T00:21:43;92861.97;;;13.36;53.79
9277;BME280;4676;42.678;23.244;2023-02-26T00:24:09;92848.50;;;13.34;54.16
9277;BME280;4676;42.678;23.244;2023-02-26T00:26:36;92858.81;;;13.33;53.90
9277;BME280;4676;42.678;23.244;2023-02-26T00:29:03;92865.03;;;13.29;54.39
9277;BME280;4676;42.678;23.244;2023-02-26T00:31:32;92855.56;;;13.31;53.34
9277;BME280;4676;42.678;23.244;2023-02-26T00:33:59;92857.09;;;13.33;53.46
9277;BME280;4676;42.678;23.244;2023-02-26T00:36:35;92836.13;;;13.30;53.01
9277;BME280;4676;42.678;23.244;2023-02-26T00:39:12;92845.59;;;13.28;53.28
9277;BME280;4676;42.678;23.244;2023-02-26T00:41:42;92851.72;;;13.25;53.50
9277;BME280;4676;42.678;23.244;2023-02-26T00:44:09;92859.81;;;13.30;52.50
9277;BME280;4676;42.678;23.244;2023-02-26T00:46:43;92852.19;;;13.30;53.11
9277;BME280;4676;42.678;23.244;2023-02-26T00:49:19;92847.31;;;13.27;53.14
9277;BME280;4676;42.678;23.244;2023-02-26T00:51:50;92843.06;;;13.28;52.98
9277;BME280;4676;42.678;23.244;2023-02-26T00:54:20;92845.72;;;13.26;52.52
9277;BME280;4676;42.678;23.244;2023-02-26T00:56:48;92835.63;;;13.25;51.59
9277;BME280;4676;42.678;23.244;2023-02-26T00:59:16;92838.69;;;13.30;51.66
9277;BME280;4676;42.678;23.244;2023-02-26T01:01:44;92834.28;;;13.32;51.08
9277;BME280;4676;42.678;23.244;2023-02-26T01:04:12;92816.19;;;13.24;50.62
9277;BME280;4676;42.678;23.244;2023-02-26T01:06:41;92827.16;;;13.37;50.51
9277;BME280;4676;42.678;23.244;2023-02-26T01:09:15;92839.75;;;13.38;50.93
9277;BME280;4676;42.678;23.244;2023-02-26T01:11:43;92845.44;;;13.42;50.74
9277;BME280;4676;42.678;23.244;2023-02-26T01:14:10;92834.66;;;13.38;50.59
9277;BME280;4676;42.678;23.244;2023-02-26T01:16:43;92827.94;;;13.37;50.85
9277;BME280;4676;42.678;23.244;2023-02-26T01:19:22;92827.94;;;13.37;50.98
9277;BME280;4676;42.678;23.244;2023-02-26T01:21:55;92826.88;;;13.29;50.94
9277;BME280;4676;42.678;23.244;2023-02-26T01:24:27;92818.31;;;13.30;51.07
9277;BME280;4676;42.678;23.244;2023-02-26T01:26:55;92816.69;;;13.29;50.95
9277;BME280;4676;42.678;23.244;2023-02-26T01:29:22;92822.00;;;13.26;51.29
9277;BME280;4676;42.678;23.244;2023-02-26T01:31:53;92780.72;;;13.22;50.82
9277;BME280;4676;42.678;23.244;2023-02-26T01:34:28;92798.06;;;13.28;50.32
9277;BME280;4676;42.678;23.244;2023-02-26T01:37:05;92803.84;;;13.30;50.40
9277;BME280;4676;42.678;23.244;2023-02-26T01:39:39;92787.88;;;13.28;50.63
9277;BME280;4676;42.678;23.244;2023-02-26T01:42:14;92792.88;;;13.30;50.08
9277;BME280;4676;42.678;23.244;2023-02-26T01:44:54;92793.56;;;13.32;50.43
9277;BME280;4676;42.678;23.244;2023-02-26T01:47:26;92783.84;;;13.26;50.14
9277;BME280;4676;42.678;23.244;2023-02-26T01:49:57;92789.25;;;13.21;49.88
9277;BME280;4676;42.678;23.244;2023-02-26T01:55:26;92790.28;;;13.19;50.35
9277;BME280;4676;42.678;23.244;2023-02-26T01:57:56;92771.88;;;13.15;50.11
9277;BME280;4676;42.678;23.244;2023-02-26T02:00:24;92759.97;;;13.16;49.90
9277;BME280;4676;42.678;23.244;2023-02-26T02:02:50;92763.22;;;13.18;50.11
9277;BME280;4676;42.678;23.244;2023-02-26T02:05:23;92755.81;;;13.15;49.75
9277;BME280;4676;42.678;23.244;2023-02-26T02:07:51;92766.41;;;13.09;49.60
9277;BME280;4676;42.678;23.244;2023-02-26T02:10:18;92758.75;;;13.09;49.95
9277;BME280;4676;42.678;23.244;2023-02-26T02:12:50;92745.66;;;13.02;49.72
9277;BME280;4676;42.678;23.244;2023-02-26T02:15:25;92743.69;;;13.06;50.10
9277;BME280;4676;42.678;23.244;2023-02-26T02:18:01;92747.41;;;13.01;50.13
9277;BME280;4676;42.678;23.244;2023-02-26T02:23:38;92738.13;;;13.00;49.79
9277;BME280;4676;42.678;23.244;2023-02-26T02:26:36;92718.25;;;12.94;50.11
9277;BME280;4676;42.678;23.244;2023-02-26T02:29:25;92714.50;;;12.87;49.09
9277;BME280;4676;42.678;23.244;2023-02-26T02:31:59;92729.97;;;13.08;49.23
9277;BME280;4676;42.678;23.244;2023-02-26T02:34:34;92730.50;;;13.00;49.52
9277;BME280;4676;42.678;23.244;2023-02-26T02:37:09;92743.00;;;13.03;49.25
9277;BME280;4676;42.678;23.244;2023-02-26T02:39:41;92728.88;;;12.99;49.45
9277;BME280;4676;42.678;23.244;2023-02-26T02:42:19;92734.78;;;13.00;49.66
9277;BME280;4676;42.678;23.244;2023-02-26T02:44:50;92746.81;;;12.98;49.67
9277;BME280;4676;42.678;23.244;2023-02-26T02:47:20;92741.91;;;12.95;50.13
9277;BME280;4676;42.678;23.244;2023-02-26T02:49:55;92750.94;;;12.99;49.24
9277;BME280;4676;42.678;23.244;2023-02-26T02:52:27;92748.03;;;12.92;49.63
9277;BME280;4676;42.678;23.244;2023-02-26T02:54:59;92746.81;;;12.98;48.94
9277;BME280;4676;42.678;23.244;2023-02-26T02:57:32;92742.50;;;12.98;49.12
9277;BME280;4676;42.678;23.244;2023-02-26T03:00:04;92750.34;;;12.95;48.94
9277;BME280;4676;42.678;23.244;2023-02-26T03:02:37;92765.84;;;12.92;49.16
9277;BME280;4676;42.678;23.244;2023-02-26T03:05:17;92763.78;;;12.97;48.70
9277;BME280;4676;42.678;23.244;2023-02-26T03:07:50;92758.72;;;12.97;48.54
9277;BME280;4676;42.678;23.244;2023-02-26T03:10:18;92775.47;;;13.00;48.36
9277;BME280;4676;42.678;23.244;2023-02-26T03:12:45;92775.38;;;13.01;48.14
9277;BME280;4676;42.678;23.244;2023-02-26T03:15:13;92759.84;;;12.93;48.44
9277;BME280;4676;42.678;23.244;2023-02-26T03:17:49;92767.34;;;12.95;48.54
9277;BME280;4676;42.678;23.244;2023-02-26T03:20:24;92771.50;;;12.96;48.36
9277;BME280;4676;42.678;23.244;2023-02-26T03:23:00;92766.34;;;12.97;48.20
9277;BME280;4676;42.678;23.244;2023-02-26T03:25:34;92773.16;;;12.97;48.34
9277;BME280;4676;42.678;23.244;2023-02-26T03:28:07;92762.97;;;12.97;48.68
9277;BME280;4676;42.678;23.244;2023-02-26T03:30:40;92760.88;;;12.91;48.35
9277;BME280;4676;42.678;23.244;2023-02-26T03:33:13;92773.25;;;12.95;48.60
9277;BME280;4676;42.678;23.244;2023-02-26T03:35:48;92770.00;;;12.93;48.80
9277;BME280;4676;42.678;23.244;2023-02-26T03:38:23;92764.91;;;12.93;48.78
9277;BME280;4676;42.678;23.244;2023-02-26T03:40:55;92766.06;;;12.89;49.31
9277;BME280;4676;42.678;23.244;2023-02-26T03:43:30;92758.13;;;12.81;50.18
9277;BME280;4676;42.678;23.244;2023-02-26T03:46:02;92768.75;;;12.75;50.48
9277;BME280;4676;42.678;23.244;2023-02-26T03:48:34;92771.81;;;12.68;51.03
9277;BME280;4676;42.678;23.244;2023-02-26T03:51:04;92762.06;;;12.62;51.36
9277;BME280;4676;42.678;23.244;2023-02-26T03:53:35;92748.66;;;12.60;51.58
9277;BME280;4676;42.678;23.244;2023-02-26T03:56:06;92741.03;;;12.60;51.60
9277;BME280;4676;42.678;23.244;2023-02-26T03:58:37;92742.66;;;12.61;51.75
9277;BME280;4676;42.678;23.244;2023-02-26T04:01:07;92749.25;;;12.63;51.78
9277;BME280;4676;42.678;23.244;2023-02-26T04:03:40;92704.41;;;12.38;51.77
9277;BME280;4676;42.678;23.244;2023-02-26T04:06:08;92738.91;;;12.53;51.63
9277;BME280;4676;42.678;23.244;2023-02-26T04:08:35;92743.19;;;12.53;51.99
9277;BME280;4676;42.678;23.244;2023-02-26T04:11:05;92755.56;;;12.58;51.51
9277;BME280;4676;42.678;23.244;2023-02-26T04:13:33;92750.28;;;12.61;51.60
9277;BME280;4676;42.678;23.244;2023-02-26T04:16:00;92740.84;;;12.63;51.54
9277;BME280;4676;42.678;23.244;2023-02-26T04:18:27;92749.47;;;12.60;52.09
9277;BME280;4676;42.678;23.244;2023-02-26T04:20:55;92738.47;;;12.60;51.57
9277;BME280;4676;42.678;23.244;2023-02-26T04:23:22;92730.06;;;12.59;51.09
9277;BME280;4676;42.678;23.244;2023-02-26T04:25:49;92728.13;;;12.63;50.75
9277;BME280;4676;42.678;23.244;2023-02-26T04:28:16;92722.09;;;12.64;51.38
9277;BME280;4676;42.678;23.244;2023-02-26T04:30:43;92715.81;;;12.69;51.05
9277;BME280;4676;42.678;23.244;2023-02-26T04:33:09;92716.19;;;12.63;51.40
9277;BME280;4676;42.678;23.244;2023-02-26T04:35:36;92722.00;;;12.65;50.94
9277;BME280;4676;42.678;23.244;2023-02-26T04:38:04;92710.00;;;12.67;50.53
9277;BME280;4676;42.678;23.244;2023-02-26T04:40:31;92696.28;;;12.70;49.64
9277;BME280;4676;42.678;23.244;2023-02-26T04:42:57;92706.59;;;12.79;49.43
9277;BME280;4676;42.678;23.244;2023-02-26T04:45:24;92705.78;;;12.79;49.27
9277;BME280;4676;42.678;23.244;2023-02-26T04:47:51;92702.34;;;12.80;49.70
9277;BME280;4676;42.678;23.244;2023-02-26T04:50:17;92681.88;;;12.81;49.48
9277;BME280;4676;42.678;23.244;2023-02-26T04:52:44;92694.50;;;12.83;48.92
9277;BME280;4676;42.678;23.244;2023-02-26T04:55:12;92694.34;;;12.84;48.25
9277;BME280;4676;42.678;23.244;2023-02-26T04:57:39;92699.72;;;12.92;48.27
9277;BME280;4676;42.678;23.244;2023-02-26T05:00:07;92708.16;;;12.93;47.89
9277;BME280;4676;42.678;23.244;2023-02-26T05:02:34;92677.56;;;12.94;48.81
9277;BME280;4676;42.678;23.244;2023-02-26T05:05:01;92672.47;;;12.94;48.14
9277;BME280;4676;42.678;23.244;2023-02-26T05:07:28;92682.50;;;12.96;48.29
9277;BME280;4676;42.678;23.244;2023-02-26T05:09:54;92668.06;;;12.96;47.12
9277;BME280;4676;42.678;23.244;2023-02-26T05:12:23;92672.84;;;13.01;47.08
9277;BME280;4676;42.678;23.244;2023-02-26T05:14:50;92662.84;;;13.11;46.61
9277;BME280;4676;42.678;23.244;2023-02-26T05:17:16;92657.75;;;13.11;46.58
9277;BME280;4676;42.678;23.244;2023-02-26T05:19:43;92653.34;;;13.13;46.42
9277;BME280;4676;42.678;23.244;2023-02-26T05:22:10;92650.59;;;13.16;45.95
9277;BME280;4676;42.678;23.244;2023-02-26T05:24:36;92658.25;;;13.16;46.40
9277;BME280;4676;42.678;23.244;2023-02-26T05:27:03;92628.84;;;13.12;46.47
9277;BME280;4676;42.678;23.244;2023-02-26T05:29:32;92659.97;;;13.15;45.74
9277;BME280;4676;42.678;23.244;2023-02-26T05:31:59;92643.44;;;13.21;45.73
9277;BME280;4676;42.678;23.244;2023-02-26T05:34:25;92649.91;;;13.25;45.65
9277;BME280;4676;42.678;23.244;2023-02-26T05:36:52;92654.78;;;13.28;45.09
9277;BME280;4676;42.678;23.244;2023-02-26T05:39:19;92641.72;;;13.32;45.18
9277;BME280;4676;42.678;23.244;2023-02-26T05:41:46;92661.03;;;13.35;45.57
9277;BME280;4676;42.678;23.244;2023-02-26T05:44:12;92650.41;;;13.41;44.81
9277;BME280;4676;42.678;23.244;2023-02-26T05:46:40;92652.75;;;13.44;45.12
9277;BME280;4676;42.678;23.244;2023-02-26T05:49:07;92646.03;;;13.43;44.56
9277;BME280;4676;42.678;23.244;2023-02-26T05:51:34;92648.22;;;13.47;44.07
9277;BME280;4676;42.678;23.244;2023-02-26T05:54:01;92670.69;;;13.54;43.81
9277;BME280;4676;42.678;23.244;2023-02-26T05:56:27;92650.69;;;13.60;43.30
9277;BME280;4676;42.678;23.244;2023-02-26T05:58:54;92643.72;;;13.73;43.02
9277;BME280;4676;42.678;23.244;2023-02-26T06:01:21;92587.28;;;13.46;42.20
9277;BME280;4676;42.678;23.244;2023-02-26T06:03:49;92657.16;;;13.86;42.38
9277;BME280;4676;42.678;23.244;2023-02-26T06:06:15;92674.16;;;13.97;41.48
9277;BME280;4676;42.678;23.244;2023-02-26T06:08:43;92676.03;;;14.06;41.83
9277;BME280;4676;42.678;23.244;2023-02-26T06:11:09;92677.53;;;14.09;41.61
9277;BME280;4676;42.678;23.244;2023-02-26T06:13:37;92661.34;;;14.10;41.67
9277;BME280;4676;42.678;23.244;2023-02-26T06:16:04;92681.72;;;14.21;41.14
9277;BME280;4676;42.678;23.244;2023-02-26T06:18:31;92679.38;;;14.29;41.38
9277;BME280;4676;42.678;23.244;2023-02-26T06:20:59;92685.28;;;14.29;41.53
9277;BME280;4676;42.678;23.244;2023-02-26T06:23:26;92705.25;;;14.35;40.81
9277;BME280;4676;42.678;23.244;2023-02-26T06:25:53;92698.84;;;14.41;41.04
9277;BME280;4676;42.678;23.244;2023-02-26T06:28:20;92690.88;;;14.45;40.83
9277;BME280;4676;42.678;23.244;2023-02-26T06:30:49;92699.19;;;14.47;41.01
9277;BME280;4676;42.678;23.244;2023-02-26T06:33:17;92692.94;;;14.52;40.65
9277;BME280;4676;42.678;23.244;2023-02-26T06:35:44;92661.84;;;14.58;40.84
9277;BME280;4676;42.678;23.244;2023-02-26T06:38:12;92676.56;;;14.65;39.49
9277;BME280;4676;42.678;23.244;2023-02-26T06:40:39;92678.50;;;14.73;39.92
9277;BME280;4676;42.678;23.244;2023-02-26T06:43:06;92715.72;;;14.75;40.66
9277;BME280;4676;42.678;23.244;2023-02-26T06:45:34;92685.00;;;14.77;40.12
9277;BME280;4676;42.678;23.244;2023-02-26T06:48:01;92666.09;;;14.79;39.83
9277;BME280;4676;42.678;23.244;2023-02-26T06:50:27;92661.44;;;14.84;39.29
9277;BME280;4676;42.678;23.244;2023-02-26T06:52:54;92680.53;;;14.90;38.98
9277;BME280;4676;42.678;23.244;2023-02-26T06:55:23;92621.25;;;14.97;38.84
9277;BME280;4676;42.678;23.244;2023-02-26T06:57:51;92662.75;;;14.99;38.91
9277;BME280;4676;42.678;23.244;2023-02-26T07:00:18;92660.66;;;15.05;39.41
9277;BME280;4676;42.678;23.244;2023-02-26T07:02:45;92664.34;;;15.12;38.62
9277;BME280;4676;42.678;23.244;2023-02-26T07:05:12;92662.00;;;15.20;39.00
9277;BME280;4676;42.678;23.244;2023-02-26T07:07:38;92671.13;;;15.22;38.60
9277;BME280;4676;42.678;23.244;2023-02-26T07:10:06;92687.00;;;15.26;38.12
9277;BME280;4676;42.678;23.244;2023-02-26T07:12:34;92679.47;;;15.24;38.31
9277;BME280;4676;42.678;23.244;2023-02-26T07:15:03;92687.94;;;15.25;38.68
9277;BME280;4676;42.678;23.244;2023-02-26T07:17:30;92648.34;;;15.10;38.72
9277;BME280;4676;42.678;23.244;2023-02-26T07:19:57;92677.00;;;15.34;38.96
9277;BME280;4676;42.678;23.244;2023-02-26T07:22:25;92702.59;;;15.43;39.12
9277;BME280;4676;42.678;23.244;2023-02-26T07:24:51;92700.38;;;15.50;38.79
9277;BME280;4676;42.678;23.244;2023-02-26T07:27:18;92685.38;;;15.57;38.05
9277;BME280;4676;42.678;23.244;2023-02-26T07:29:46;92706.03;;;15.54;38.88
9277;BME280;4676;42.678;23.244;2023-02-26T07:32:13;92699.31;;;15.53;38.51
9277;BME280;4676;42.678;23.244;2023-02-26T07:34:39;92684.28;;;15.59;38.79
9277;BME280;4676;42.678;23.244;2023-02-26T07:37:06;92686.50;;;15.64;38.86
9277;BME280;4676;42.678;23.244;2023-02-26T07:39:33;92710.69;;;15.69;38.37
9277;BME280;4676;42.678;23.244;2023-02-26T07:42:00;92706.97;;;15.73;38.39
9277;BME280;4676;42.678;23.244;2023-02-26T07:44:27;92706.16;;;15.73;38.32
9277;BME280;4676;42.678;23.244;2023-02-26T07:46:55;92701.84;;;15.73;38.47
9277;BME280;4676;42.678;23.244;2023-02-26T07:49:22;92692.59;;;15.72;38.05
9277;BME280;4676;42.678;23.244;2023-02-26T07:51:49;92689.66;;;15.77;38.32
9277;BME280;4676;42.678;23.244;2023-02-26T07:54:16;92698.81;;;15.79;38.76
9277;BME280;4676;42.678;23.244;2023-02-26T07:56:43;92701.41;;;15.89;38.52
9277;BME280;4676;42.678;23.244;2023-02-26T07:59:10;92698.72;;;15.90;37.78
9277;BME280;4676;42.678;23.244;2023-02-26T08:01:37;92702.38;;;15.97;37.83
9277;BME280;4676;42.678;23.244;2023-02-26T08:04:05;92698.66;;;16.02;37.87
9277;BME280;4676;42.678;23.244;2023-02-26T08:06:32;92683.53;;;16.19;37.93
9277;BME280;4676;42.678;23.244;2023-02-26T08:08:59;92693.25;;;16.25;38.05
9277;BME280;4676;42.678;23.244;2023-02-26T08:11:26;92686.38;;;16.26;37.98
9277;BME280;4676;42.678;23.244;2023-02-26T08:13:53;92699.69;;;16.29;37.69
9277;BME280;4676;42.678;23.244;2023-02-26T08:16:19;92700.59;;;16.19;37.62
9277;BME280;4676;42.678;23.244;2023-02-26T08:18:46;92709.88;;;16.10;37.50
9277;BME280;4676;42.678;23.244;2023-02-26T08:21:14;92694.91;;;16.06;37.40
9277;BME280;4676;42.678;23.244;2023-02-26T08:23:41;92702.56;;;16.06;37.63
9277;BME280;4676;42.678;23.244;2023-02-26T08:26:09;92702.31;;;16.09;37.53
9277;BME280;4676;42.678;23.244;2023-02-26T08:28:36;92704.13;;;16.18;37.76
9277;BME280;4676;42.678;23.244;2023-02-26T08:31:04;92736.78;;;16.14;38.07
9277;BME280;4676;42.678;23.244;2023-02-26T08:36:08;92726.06;;;16.20;37.61
9277;BME280;4676;42.678;23.244;2023-02-26T08:38:37;92715.31;;;16.26;38.06
9277;BME280;4676;42.678;23.244;2023-02-26T08:41:03;92699.09;;;16.07;37.42
9277;BME280;4676;42.678;23.244;2023-02-26T08:43:31;92751.72;;;16.39;37.53
9277;BME280;4676;42.678;23.244;2023-02-26T08:45:57;92733.56;;;16.42;37.10
9277;BME280;4676;42.678;23.244;2023-02-26T08:48:25;92697.16;;;16.29;36.99
9277;BME280;4676;42.678;23.244;2023-02-26T08:50:52;92747.81;;;16.45;36.83
9277;BME280;4676;42.678;23.244;2023-02-26T08:53:18;92734.78;;;16.48;37.18
9277;BME280;4676;42.678;23.244;2023-02-26T08:55:48;92756.03;;;16.48;37.23
9277;BME280;4676;42.678;23.244;2023-02-26T08:58:16;92736.72;;;16.56;36.55
9277;BME280;4676;42.678;23.244;2023-02-26T09:00:43;92705.41;;;16.42;35.98
9277;BME280;4676;42.678;23.244;2023-02-26T09:03:10;92732.56;;;16.64;36.38
9277;BME280;4676;42.678;23.244;2023-02-26T09:05:37;92742.94;;;16.63;36.25
9277;BME280;4676;42.678;23.244;2023-02-26T09:08:05;92751.28;;;16.65;36.16
9277;BME280;4676;42.678;23.244;2023-02-26T09:10:32;92718.28;;;16.62;36.61
9277;BME280;4676;42.678;23.244;2023-02-26T09:13:00;92730.63;;;16.96;36.23
9277;BME280;4676;42.678;23.244;2023-02-26T09:15:27;92718.78;;;17.15;36.28
9277;BME280;4676;42.678;23.244;2023-02-26T09:17:54;92746.72;;;17.27;35.87
9277;BME280;4676;42.678;23.244;2023-02-26T09:20:21;92755.06;;;17.48;35.50
9277;BME280;4676;42.678;23.244;2023-02-26T09:22:47;92706.00;;;17.43;34.59
9277;BME280;4676;42.678;23.244;2023-02-26T09:25:14;92744.97;;;17.76;34.32
9277;BME280;4676;42.678;23.244;2023-02-26T09:27:41;92718.78;;;17.82;34.22
9277;BME280;4676;42.678;23.244;2023-02-26T09:30:11;92740.59;;;18.05;33.89
9277;BME280;4676;42.678;23.244;2023-02-26T09:32:38;92750.94;;;18.23;33.22
9277;BME280;4676;42.678;23.244;2023-02-26T09:35:05;92761.03;;;18.43;33.63
9277;BME280;4676;42.678;23.244;2023-02-26T09:37:32;92746.81;;;18.49;33.04
9277;BME280;4676;42.678;23.244;2023-02-26T09:39:59;92748.19;;;18.53;32.72
9277;BME280;4676;42.678;23.244;2023-02-26T09:42:46;92772.91;;;18.54;32.66
9277;BME280;4676;42.678;23.244;2023-02-26T09:45:24;92761.84;;;18.34;32.74
9277;BME280;4676;42.678;23.244;2023-02-26T09:47:53;92772.94;;;18.25;33.42
9277;BME280;4676;42.678;23.244;2023-02-26T09:50:23;92749.34;;;18.12;33.31
9277;BME280;4676;42.678;23.244;2023-02-26T09:52:53;92752.47;;;18.06;34.11
9277;BME280;4676;42.678;23.244;2023-02-26T09:55:26;92770.13;;;18.19;33.94
9277;BME280;4676;42.678;23.244;2023-02-26T09:57:57;92768.13;;;18.03;34.01
9277;BME280;4676;42.678;23.244;2023-02-26T10:00:32;92770.66;;;18.13;34.55
9277;BME280;4676;42.678;23.244;2023-02-26T10:03:13;92784.84;;;18.17;34.54
9277;BME280;4676;42.678;23.244;2023-02-26T10:05:52;92771.31;;;18.24;34.71
9277;BME280;4676;42.678;23.244;2023-02-26T10:08:26;92767.56;;;18.19;33.92
9277;BME280;4676;42.678;23.244;2023-02-26T10:11:02;92765.81;;;18.10;34.85
9277;BME280;4676;42.678;23.244;2023-02-26T10:13:36;92741.41;;;18.06;33.93
9277;BME280;4676;42.678;23.244;2023-02-26T10:16:12;92764.09;;;18.01;34.45
9277;BME280;4676;42.678;23.244;2023-02-26T10:18:44;92765.06;;;17.90;34.55
9277;BME280;4676;42.678;23.244;2023-02-26T10:21:16;92753.97;;;17.99;34.95
9277;BME280;4676;42.678;23.244;2023-02-26T10:23:44;92760.88;;;17.89;34.44
9277;BME280;4676;42.678;23.244;2023-02-26T10:26:18;92744.66;;;17.88;35.44
9277;BME280;4676;42.678;23.244;2023-02-26T10:28:53;92753.03;;;17.81;35.30
9277;BME280;4676;42.678;23.244;2023-02-26T10:31:28;92735.13;;;17.62;35.09
9277;BME280;4676;42.678;23.244;2023-02-26T10:34:07;92727.72;;;17.68;35.56
9277;BME280;4676;42.678;23.244;2023-02-26T10:36:41;92714.09;;;17.68;35.58
9277;BME280;4676;42.678;23.244;2023-02-26T10:39:18;92716.88;;;17.93;36.25
9277;BME280;4676;42.678;23.244;2023-02-26T10:41:47;92709.34;;;17.82;36.00
9277;BME280;4676;42.678;23.244;2023-02-26T10:44:20;92728.00;;;17.65;35.74
9277;BME280;4676;42.678;23.244;2023-02-26T10:46:55;92720.69;;;17.70;36.46
9277;BME280;4676;42.678;23.244;2023-02-26T10:49:42;92696.69;;;17.42;36.02
9277;BME280;4676;42.678;23.244;2023-02-26T10:52:15;92715.56;;;17.51;36.55
9277;BME280;4676;42.678;23.244;2023-02-26T10:54:48;92654.41;;;17.10;36.84
9277;BME280;4676;42.678;23.244;2023-02-26T10:57:22;92704.53;;;17.41;36.93
9277;BME280;4676;42.678;23.244;2023-02-26T10:59:50;92705.59;;;17.29;36.43
9277;BME280;4676;42.678;23.244;2023-02-26T11:02:37;92713.69;;;17.34;37.17
9277;BME280;4676;42.678;23.244;2023-02-26T11:05:08;92715.69;;;17.40;37.36
9277;BME280;4676;42.678;23.244;2023-02-26T11:07:39;92701.41;;;17.37;36.77
9277;BME280;4676;42.678;23.244;2023-02-26T11:10:13;92553.06;;;16.40;37.28
9277;BME280;4676;42.678;23.244;2023-02-26T11:12:41;92682.00;;;17.16;37.15
9277;BME280;4676;42.678;23.244;2023-02-26T11:15:12;92664.50;;;17.11;37.07
9277;BME280;4676;42.678;23.244;2023-02-26T11:17:40;92667.88;;;17.02;37.76
9277;BME280;4676;42.678;23.244;2023-02-26T11:20:16;92688.63;;;16.99;38.25
9277;BME280;4676;42.678;23.244;2023-02-26T11:22:46;92674.59;;;16.93;38.27
9277;BME280;4676;42.678;23.244;2023-02-26T11:25:17;92669.47;;;16.84;38.25
9277;BME280;4676;42.678;23.244;2023-02-26T11:27:47;92679.53;;;16.85;38.72
9277;BME280;4676;42.678;23.244;2023-02-26T11:30:15;92676.88;;;16.77;39.00
9277;BME280;4676;42.678;23.244;2023-02-26T11:32:48;92674.03;;;16.71;39.41
9277;BME280;4676;42.678;23.244;2023-02-26T11:35:16;92676.03;;;16.67;39.33
9277;BME280;4676;42.678;23.244;2023-02-26T11:37:46;92635.69;;;16.40;39.95
9277;BME280;4676;42.678;23.244;2023-02-26T11:40:17;92675.41;;;16.54;40.25
9277;BME280;4676;42.678;23.244;2023-02-26T11:42:49;92643.63;;;16.37;40.57
9277;BME280;4676;42.678;23.244;2023-02-26T11:45:19;92632.72;;;16.35;41.41
9277;BME280;4676;42.678;23.244;2023-02-26T11:47:48;92656.69;;;16.44;41.63
9277;BME280;4676;42.678;23.244;2023-02-26T11:50:20;92650.59;;;16.26;41.55
9277;BME280;4676;42.678;23.244;2023-02-26T11:52:54;92593.22;;;15.99;42.31
9277;BME280;4676;42.678;23.244;2023-02-26T11:55:27;92666.06;;;16.24;43.15
9277;BME280;4676;42.678;23.244;2023-02-26T11:57:55;92697.66;;;16.23;43.26
9277;BME280;4676;42.678;23.244;2023-02-26T12:00:24;92697.38;;;16.17;43.51
9277;BME280;4676;42.678;23.244;2023-02-26T12:02:59;92729.16;;;16.24;44.43
9277;BME280;4676;42.678;23.244;2023-02-26T12:05:27;92723.19;;;16.14;44.67
9277;BME280;4676;42.678;23.244;2023-02-26T12:07:54;92729.88;;;16.05;45.01
9277;BME280;4676;42.678;23.244;2023-02-26T12:10:23;92745.75;;;16.09;45.14
9277;BME280;4676;42.678;23.244;2023-02-26T12:13:00;92743.50;;;16.15;44.21
9277;BME280;4676;42.678;23.244;2023-02-26T12:15:33;92754.19;;;16.30;43.61
9277;BME280;4676;42.678;23.244;2023-02-26T12:18:13;92771.22;;;16.40;42.96
9277;BME280;4676;42.678;23.244;2023-02-26T12:20:52;92763.25;;;16.34;42.03
9277;BME280;4676;42.678;23.244;2023-02-26T12:23:35;92747.88;;;16.24;42.48
9277;BME280;4676;42.678;23.244;2023-02-26T12:26:21;92747.44;;;16.19;43.18
9277;BME280;4676;42.678;23.244;2023-02-26T12:29:01;92729.25;;;16.13;43.37
9277;BME280;4676;42.678;23.244;2023-02-26T12:31:52;92760.59;;;16.15;43.66
9277;BME280;4676;42.678;23.244;2023-02-26T12:34:51;92756.72;;;16.20;43.90
9277;BME280;4676;42.678;23.244;2023-02-26T12:37:33;92757.47;;;16.32;42.48
9277;BME280;4676;42.678;23.244;2023-02-26T12:40:17;92783.25;;;16.49;42.01
9277;BME280;4676;42.678;23.244;2023-02-26T12:42:53;92776.75;;;16.76;42.31
9277;BME280;4676;42.678;23.244;2023-02-26T12:45:36;92787.16;;;16.84;41.51
9277;BME280;4676;42.678;23.244;2023-02-26T12:48:31;92780.91;;;16.67;41.97
9277;BME280;4676;42.678;23.244;2023-02-26T12:51:09;92807.59;;;16.74;42.07
9277;BME280;4676;42.678;23.244;2023-02-26T12:54:05;92809.91;;;16.77;41.84
9277;BME280;4676;42.678;23.244;2023-02-26T12:57:10;92817.72;;;16.85;42.15
9277;BME280;4676;42.678;23.244;2023-02-26T13:00:09;92828.63;;;16.78;41.96
9277;BME280;4676;42.678;23.244;2023-02-26T13:03:05;92816.88;;;16.75;41.56
9277;BME280;4676;42.678;23.244;2023-02-26T13:05:50;92764.59;;;16.38;41.24
9277;BME280;4676;42.678;23.244;2023-02-26T13:08:28;92812.56;;;16.45;42.64
9277;BME280;4676;42.678;23.244;2023-02-26T13:11:08;92847.72;;;16.53;42.74
9277;BME280;4676;42.678;23.244;2023-02-26T13:13:52;92836.50;;;16.44;43.56
9277;BME280;4676;42.678;23.244;2023-02-26T13:16:30;92844.38;;;16.53;44.10
9277;BME280;4676;42.678;23.244;2023-02-26T13:19:07;92844.44;;;16.41;44.70
9277;BME280;4676;42.678;23.244;2023-02-26T13:21:41;92832.09;;;16.26;44.92
9277;BME280;4676;42.678;23.244;2023-02-26T13:24:13;92847.75;;;16.32;45.25
9277;BME280;4676;42.678;23.244;2023-02-26T13:26:41;92819.75;;;16.31;45.15
9277;BME280;4676;42.678;23.244;2023-02-26T13:29:11;92823.16;;;16.41;45.19
9277;BME280;4676;42.678;23.244;2023-02-26T13:31:43;92827.59;;;16.39;45.33
9277;BME280;4676;42.678;23.244;2023-02-26T13:34:14;92824.09;;;16.61;45.47
9277;BME280;4676;42.678;23.244;2023-02-26T13:36:44;92814.84;;;16.69;45.11
9277;BME280;4676;42.678;23.244;2023-02-26T13:39:31;92809.19;;;16.66;44.81